sensor_id;sensor_type;location;lat;lon;timestamp;pressure;altitude;pressure_sealevel;temperature;humidity
60087;BME280;45960;53.630;55.972;2023-03-23T00:00:36;100281.63;;;3.91;49.86
60087;BME280;45960;53.630;55.972;2023-03-23T00:01:37;100287.19;;;3.84;50.04
60087;BME280;45960;53.630;55.972;2023-03-23T00:02:38;100284.00;;;3.75;50.21
60087;BME280;45960;53.630;55.972;2023-03-23T00:03:39;100288.63;;;3.69;50.18
60087;BME280;45960;53.630;55.972;2023-03-23T00:04:40;100289.81;;;3.60;50.44
60087;BME280;45960;53.630;55.972;2023-03-23T00:05:43;100291.88;;;3.52;50.49
60087;BME280;45960;53.630;55.972;2023-03-23T00:06:50;100293.94;;;3.44;50.75
60087;BME280;45960;53.630;55.972;2023-03-23T00:07:51;100287.16;;;3.36;50.80
60087;BME280;45960;53.630;55.972;2023-03-23T00:08:53;100291.78;;;3.30;50.74
60087;BME280;45960;53.630;55.972;2023-03-23T00:09:59;100287.69;;;3.21;50.96
60087;BME280;45960;53.630;55.972;2023-03-23T00:11:06;100287.91;;;3.15;51.07
60087;BME280;45960;53.630;55.972;2023-03-23T00:12:08;100292.44;;;3.11;50.92
60087;BME280;45960;53.630;55.972;2023-03-23T00:13:09;100290.88;;;3.06;51.19
60087;BME280;45960;53.630;55.972;2023-03-23T00:14:11;100291.88;;;3.02;51.16
60087;BME280;45960;53.630;55.972;2023-03-23T00:15:15;100291.16;;;2.97;51.25
60087;BME280;45960;53.630;55.972;2023-03-23T00:16:17;100287.88;;;2.90;51.24
60087;BME280;45960;53.630;55.972;2023-03-23T00:17:18;100294.22;;;2.84;51.26
60087;BME280;45960;53.630;55.972;2023-03-23T00:18:20;100289.16;;;2.78;51.44
60087;BME280;45960;53.630;55.972;2023-03-23T00:19:24;100295.50;;;2.73;51.59
60087;BME280;45960;53.630;55.972;2023-03-23T00:20:25;100300.00;;;2.69;51.64
60087;BME280;45960;53.630;55.972;2023-03-23T00:21:31;100297.50;;;2.64;51.55
60087;BME280;45960;53.630;55.972;2023-03-23T00:22:35;100296.75;;;2.61;51.61
60087;BME280;45960;53.630;55.972;2023-03-23T00:23:39;100307.44;;;2.56;51.72
60087;BME280;45960;53.630;55.972;2023-03-23T00:24:41;100312.84;;;2.52;52.01
60087;BME280;45960;53.630;55.972;2023-03-23T00:25:41;100307.69;;;2.49;51.99
60087;BME280;45960;53.630;55.972;2023-03-23T00:26:43;100312.16;;;2.46;51.65
60087;BME280;45960;53.630;55.972;2023-03-23T00:27:44;100311.44;;;2.41;52.06
60087;BME280;45960;53.630;55.972;2023-03-23T00:28:46;100317.66;;;2.39;51.94
60087;BME280;45960;53.630;55.972;2023-03-23T00:29:47;100308.94;;;2.37;51.98
60087;BME280;45960;53.630;55.972;2023-03-23T00:30:48;100320.44;;;2.34;51.87
60087;BME280;45960;53.630;55.972;2023-03-23T00:31:49;100312.63;;;2.31;52.30
60087;BME280;45960;53.630;55.972;2023-03-23T00:32:50;100313.63;;;2.27;51.96
60087;BME280;45960;53.630;55.972;2023-03-23T00:33:51;100315.44;;;2.25;52.03
60087;BME280;45960;53.630;55.972;2023-03-23T00:34:54;100315.53;;;2.22;52.18
60087;BME280;45960;53.630;55.972;2023-03-23T00:35:56;100319.16;;;2.18;52.29
60087;BME280;45960;53.630;55.972;2023-03-23T00:36:57;100318.41;;;2.14;52.36
60087;BME280;45960;53.630;55.972;2023-03-23T00:37:58;100320.28;;;2.11;52.45
60087;BME280;45960;53.630;55.972;2023-03-23T00:39:01;100319.44;;;2.09;52.50
60087;BME280;45960;53.630;55.972;2023-03-23T00:40:03;100321.34;;;2.04;52.55
60087;BME280;45960;53.630;55.972;2023-03-23T00:41:12;100321.34;;;2.04;52.42
60087;BME280;45960;53.630;55.972;2023-03-23T00:42:15;100328.28;;;2.08;52.58
60087;BME280;45960;53.630;55.972;2023-03-23T00:43:17;100323.88;;;2.08;52.16
60087;BME280;45960;53.630;55.972;2023-03-23T00:44:18;100329.13;;;2.08;52.24
60087;BME280;45960;53.630;55.972;2023-03-23T00:45:19;100330.09;;;2.06;52.09
60087;BME280;45960;53.630;55.972;2023-03-23T00:46:20;100319.53;;;2.06;52.42
60087;BME280;45960;53.630;55.972;2023-03-23T00:47:21;100327.47;;;2.04;52.29
60087;BME280;45960;53.630;55.972;2023-03-23T00:48:23;100330.19;;;2.03;52.27
60087;BME280;45960;53.630;55.972;2023-03-23T00:49:26;100325.81;;;2.01;51.97
60087;BME280;45960;53.630;55.972;2023-03-23T00:50:27;100332.91;;;1.99;52.05
60087;BME280;45960;53.630;55.972;2023-03-23T00:51:28;100328.53;;;1.98;52.10
60087;BME280;45960;53.630;55.972;2023-03-23T00:52:29;100332.19;;;1.94;52.01
60087;BME280;45960;53.630;55.972;2023-03-23T00:53:30;100323.44;;;1.92;52.22
60087;BME280;45960;53.630;55.972;2023-03-23T00:54:31;100328.78;;;1.91;52.31
60087;BME280;45960;53.630;55.972;2023-03-23T00:55:32;100327.94;;;1.89;52.28
60087;BME280;45960;53.630;55.972;2023-03-23T00:56:34;100332.44;;;1.85;52.39
60087;BME280;45960;53.630;55.972;2023-03-23T00:57:35;100339.53;;;1.83;52.35
60087;BME280;45960;53.630;55.972;2023-03-23T00:58:36;100336.06;;;1.81;52.55
60087;BME280;45960;53.630;55.972;2023-03-23T00:59:37;100336.16;;;1.78;52.42
60087;BME280;45960;53.630;55.972;2023-03-23T01:00:38;100340.56;;;1.77;52.45
60087;BME280;45960;53.630;55.972;2023-03-23T01:01:39;100346.75;;;1.76;52.52
60087;BME280;45960;53.630;55.972;2023-03-23T01:02:40;100339.78;;;1.74;52.31
60087;BME280;45960;53.630;55.972;2023-03-23T01:03:41;100344.16;;;1.73;52.35
60087;BME280;45960;53.630;55.972;2023-03-23T01:04:42;100350.38;;;1.71;52.29
60087;BME280;45960;53.630;55.972;2023-03-23T01:05:45;100336.41;;;1.69;52.22
60087;BME280;45960;53.630;55.972;2023-03-23T01:06:52;100350.47;;;1.68;52.37
60087;BME280;45960;53.630;55.972;2023-03-23T01:07:53;100345.28;;;1.65;52.42
60087;BME280;45960;53.630;55.972;2023-03-23T01:08:53;100347.13;;;1.63;52.37
60087;BME280;45960;53.630;55.972;2023-03-23T01:09:54;100347.13;;;1.63;52.41
60087;BME280;45960;53.630;55.972;2023-03-23T01:11:02;100352.44;;;1.60;52.44
60087;BME280;45960;53.630;55.972;2023-03-23T01:12:04;100349.03;;;1.58;52.43
60087;BME280;45960;53.630;55.972;2023-03-23T01:13:07;100355.16;;;1.56;52.22
60087;BME280;45960;53.630;55.972;2023-03-23T01:14:08;100354.38;;;1.54;52.34
60087;BME280;45960;53.630;55.972;2023-03-23T01:15:12;100361.44;;;1.52;52.29
60087;BME280;45960;53.630;55.972;2023-03-23T01:16:14;100356.25;;;1.49;52.27
60087;BME280;45960;53.630;55.972;2023-03-23T01:17:15;100351.94;;;1.47;52.21
60087;BME280;45960;53.630;55.972;2023-03-23T01:18:16;100358.13;;;1.44;52.35
60087;BME280;45960;53.630;55.972;2023-03-23T01:19:17;100356.44;;;1.43;52.25
60087;BME280;45960;53.630;55.972;2023-03-23T01:20:18;100350.31;;;1.41;52.51
60087;BME280;45960;53.630;55.972;2023-03-23T01:21:19;100351.25;;;1.40;52.32
60087;BME280;45960;53.630;55.972;2023-03-23T01:22:21;100353.03;;;1.38;52.32
60087;BME280;45960;53.630;55.972;2023-03-23T01:23:21;100348.72;;;1.36;52.71
60087;BME280;45960;53.630;55.972;2023-03-23T01:24:22;100349.66;;;1.33;52.45
60087;BME280;45960;53.630;55.972;2023-03-23T01:25:23;100352.31;;;1.31;52.45
60087;BME280;45960;53.630;55.972;2023-03-23T01:26:26;100348.03;;;1.29;52.53
60087;BME280;45960;53.630;55.972;2023-03-23T01:27:27;100350.69;;;1.27;52.64
60087;BME280;45960;53.630;55.972;2023-03-23T01:28:28;100352.47;;;1.27;52.40
60087;BME280;45960;53.630;55.972;2023-03-23T01:29:28;100353.34;;;1.26;52.58
60087;BME280;45960;53.630;55.972;2023-03-23T01:30:29;100354.22;;;1.26;52.34
60087;BME280;45960;53.630;55.972;2023-03-23T01:31:30;100359.59;;;1.23;52.64
60087;BME280;45960;53.630;55.972;2023-03-23T01:32:31;100363.09;;;1.22;52.51
60087;BME280;45960;53.630;55.972;2023-03-23T01:33:32;100366.50;;;1.26;52.23
60087;BME280;45960;53.630;55.972;2023-03-23T01:34:33;100371.78;;;1.26;52.47
60087;BME280;45960;53.630;55.972;2023-03-23T01:35:37;100367.50;;;1.22;52.55
60087;BME280;45960;53.630;55.972;2023-03-23T01:36:37;100369.38;;;1.17;52.49
60087;BME280;45960;53.630;55.972;2023-03-23T01:37:38;100367.75;;;1.13;52.67
60087;BME280;45960;53.630;55.972;2023-03-23T01:38:41;100368.69;;;1.10;52.72
60087;BME280;45960;53.630;55.972;2023-03-23T01:39:41;100370.47;;;1.08;52.67
60087;BME280;45960;53.630;55.972;2023-03-23T01:40:43;100368.75;;;1.07;52.85
60087;BME280;45960;53.630;55.972;2023-03-23T01:41:44;100373.22;;;1.03;52.60
60087;BME280;45960;53.630;55.972;2023-03-23T01:42:48;100367.94;;;1.03;52.68
60087;BME280;45960;53.630;55.972;2023-03-23T01:46:20;100366.22;;;1.02;52.72
60087;BME280;45960;53.630;55.972;2023-03-23T01:47:22;100369.78;;;1.01;52.51
60087;BME280;45960;53.630;55.972;2023-03-23T01:48:27;100373.28;;;1.00;52.72
60087;BME280;45960;53.630;55.972;2023-03-23T01:49:33;100368.94;;;0.99;52.42
60087;BME280;45960;53.630;55.972;2023-03-23T01:50:42;100373.34;;;0.99;52.62
60087;BME280;45960;53.630;55.972;2023-03-23T01:51:46;100375.13;;;0.98;52.51
60087;BME280;45960;53.630;55.972;2023-03-23T01:52:49;100380.38;;;0.98;52.46
60087;BME280;45960;53.630;55.972;2023-03-23T01:53:53;100382.19;;;0.96;52.55
60087;BME280;45960;53.630;55.972;2023-03-23T01:54:56;100380.44;;;0.95;52.42
60087;BME280;45960;53.630;55.972;2023-03-23T01:55:58;100381.34;;;0.94;52.70
60087;BME280;45960;53.630;55.972;2023-03-23T01:57:01;100383.09;;;0.94;52.36
60087;BME280;45960;53.630;55.972;2023-03-23T01:58:03;100390.16;;;0.93;52.51
60087;BME280;45960;53.630;55.972;2023-03-23T01:59:03;100382.31;;;0.90;52.72
60087;BME280;45960;53.630;55.972;2023-03-23T02:00:06;100388.47;;;0.89;52.42
60087;BME280;45960;53.630;55.972;2023-03-23T02:01:15;100393.72;;;0.89;52.64
60087;BME280;45960;53.630;55.972;2023-03-23T02:02:16;100387.66;;;0.87;52.59
60087;BME280;45960;53.630;55.972;2023-03-23T02:03:19;100392.84;;;0.90;52.28
60087;BME280;45960;53.630;55.972;2023-03-23T02:04:20;100389.31;;;0.91;52.26
60087;BME280;45960;53.630;55.972;2023-03-23T02:05:25;100396.28;;;0.92;52.31
60087;BME280;45960;53.630;55.972;2023-03-23T02:06:29;100389.31;;;0.91;52.28
60087;BME280;45960;53.630;55.972;2023-03-23T02:07:44;100398.97;;;0.91;52.06
60087;BME280;45960;53.630;55.972;2023-03-23T02:08:46;100398.09;;;0.90;52.02
60087;BME280;45960;53.630;55.972;2023-03-23T02:09:51;100399.97;;;0.85;52.24
60087;BME280;45960;53.630;55.972;2023-03-23T02:10:52;100400.84;;;0.85;52.25
60087;BME280;45960;53.630;55.972;2023-03-23T02:11:53;100407.03;;;0.83;52.09
60087;BME280;45960;53.630;55.972;2023-03-23T02:12:55;100407.97;;;0.80;52.28
60087;BME280;45960;53.630;55.972;2023-03-23T02:13:57;100410.66;;;0.79;52.41
60087;BME280;45960;53.630;55.972;2023-03-23T02:14:58;100409.81;;;0.77;52.26
60087;BME280;45960;53.630;55.972;2023-03-23T02:16:03;100405.47;;;0.76;52.11
60087;BME280;45960;53.630;55.972;2023-03-23T02:17:26;100412.50;;;0.74;52.23
60087;BME280;45960;53.630;55.972;2023-03-23T02:28:00;100416.25;;;0.63;52.47
60087;BME280;45960;53.630;55.972;2023-03-23T02:33:27;100424.97;;;0.65;52.15
60087;BME280;45960;53.630;55.972;2023-03-23T02:34:31;100431.94;;;0.66;52.08
60087;BME280;45960;53.630;55.972;2023-03-23T02:35:37;100431.94;;;0.66;51.98
60087;BME280;45960;53.630;55.972;2023-03-23T02:37:57;100431.94;;;0.66;52.09
60087;BME280;45960;53.630;55.972;2023-03-23T02:39:10;100438.94;;;0.68;51.92
60087;BME280;45960;53.630;55.972;2023-03-23T02:40:20;100426.63;;;0.70;51.83
60087;BME280;45960;53.630;55.972;2023-03-23T02:41:24;100432.75;;;0.70;51.75
60087;BME280;45960;53.630;55.972;2023-03-23T02:42:26;100434.50;;;0.70;52.06
60087;BME280;45960;53.630;55.972;2023-03-23T02:43:40;100441.47;;;0.72;51.77
60087;BME280;45960;53.630;55.972;2023-03-23T02:44:44;100439.69;;;0.73;51.88
60087;BME280;45960;53.630;55.972;2023-03-23T02:45:46;100440.53;;;0.75;51.69
60087;BME280;45960;53.630;55.972;2023-03-23T02:46:47;100440.53;;;0.75;51.83
60087;BME280;45960;53.630;55.972;2023-03-23T02:47:50;100445.78;;;0.75;51.75
60087;BME280;45960;53.630;55.972;2023-03-23T02:48:52;100444.91;;;0.76;51.78
60087;BME280;45960;53.630;55.972;2023-03-23T02:49:54;100443.13;;;0.76;51.74
60087;BME280;45960;53.630;55.972;2023-03-23T02:50:56;100449.25;;;0.77;51.90
60087;BME280;45960;53.630;55.972;2023-03-23T02:51:59;100450.97;;;0.78;51.80
60087;BME280;45960;53.630;55.972;2023-03-23T02:53:02;100447.47;;;0.79;51.71
60087;BME280;45960;53.630;55.972;2023-03-23T02:54:04;100455.31;;;0.80;51.74
60087;BME280;45960;53.630;55.972;2023-03-23T02:55:07;100452.59;;;0.85;51.76
60087;BME280;45960;53.630;55.972;2023-03-23T02:56:12;100449.94;;;0.85;51.79
60087;BME280;45960;53.630;55.972;2023-03-23T02:57:14;100452.59;;;0.85;51.79
60087;BME280;45960;53.630;55.972;2023-03-23T02:58:18;100456.06;;;0.85;51.53
60087;BME280;45960;53.630;55.972;2023-03-23T02:59:19;100457.78;;;0.88;51.71
60087;BME280;45960;53.630;55.972;2023-03-23T03:00:20;100451.59;;;0.89;51.43
60087;BME280;45960;53.630;55.972;2023-03-23T03:02:36;100462.97;;;0.91;51.52
60087;BME280;45960;53.630;55.972;2023-03-23T03:03:41;100464.69;;;0.92;51.45
60087;BME280;45960;53.630;55.972;2023-03-23T03:04:44;100458.50;;;0.95;51.33
60087;BME280;45960;53.630;55.972;2023-03-23T03:08:11;100460.19;;;0.97;51.58
60087;BME280;45960;53.630;55.972;2023-03-23T03:10:41;100455.75;;;0.99;51.62
60087;BME280;45960;53.630;55.972;2023-03-23T03:11:46;100458.34;;;1.01;51.58
60087;BME280;45960;53.630;55.972;2023-03-23T03:14:06;100467.84;;;1.06;51.50
60087;BME280;45960;53.630;55.972;2023-03-23T03:15:23;100459.09;;;1.07;51.39
60087;BME280;45960;53.630;55.972;2023-03-23T03:16:33;100462.56;;;1.09;51.45
60087;BME280;45960;53.630;55.972;2023-03-23T03:17:37;100471.25;;;1.11;51.29
60087;BME280;45960;53.630;55.972;2023-03-23T03:18:48;100469.47;;;1.14;51.51
60087;BME280;45960;53.630;55.972;2023-03-23T03:19:58;100470.31;;;1.14;51.44
60087;BME280;45960;53.630;55.972;2023-03-23T03:21:07;100462.41;;;1.16;51.31
60087;BME280;45960;53.630;55.972;2023-03-23T03:22:14;100471.13;;;1.18;51.46
60087;BME280;45960;53.630;55.972;2023-03-23T03:23:16;100476.31;;;1.21;51.42
60087;BME280;45960;53.630;55.972;2023-03-23T03:24:18;100472.78;;;1.22;51.21
60087;BME280;45960;53.630;55.972;2023-03-23T03:25:24;100474.41;;;1.26;51.47
60087;BME280;45960;53.630;55.972;2023-03-23T03:26:30;100477.88;;;1.28;51.16
60087;BME280;45960;53.630;55.972;2023-03-23T03:27:46;100481.28;;;1.33;51.41
60087;BME280;45960;53.630;55.972;2023-03-23T03:28:56;100482.06;;;1.37;51.35
60087;BME280;45960;53.630;55.972;2023-03-23T03:29:58;100483.75;;;1.39;51.36
60087;BME280;45960;53.630;55.972;2023-03-23T03:31:00;100490.72;;;1.42;51.19
60087;BME280;45960;53.630;55.972;2023-03-23T03:32:03;100489.78;;;1.44;51.35
60087;BME280;45960;53.630;55.972;2023-03-23T03:33:06;100495.81;;;1.49;51.14
60087;BME280;45960;53.630;55.972;2023-03-23T03:34:07;100486.09;;;1.51;51.26
60087;BME280;45960;53.630;55.972;2023-03-23T03:35:10;100493.00;;;1.55;51.23
60087;BME280;45960;53.630;55.972;2023-03-23T03:36:17;100488.53;;;1.59;51.09
60087;BME280;45960;53.630;55.972;2023-03-23T03:37:18;100492.84;;;1.62;51.32
60087;BME280;45960;53.630;55.972;2023-03-23T03:38:22;100492.78;;;1.65;51.09
60087;BME280;45960;53.630;55.972;2023-03-23T03:39:25;100490.88;;;1.71;51.11
60087;BME280;45960;53.630;55.972;2023-03-23T03:40:26;100494.25;;;1.76;51.20
60087;BME280;45960;53.630;55.972;2023-03-23T03:41:27;100498.50;;;1.82;51.07
60087;BME280;45960;53.630;55.972;2023-03-23T03:42:28;100497.50;;;1.86;50.84
60087;BME280;45960;53.630;55.972;2023-03-23T03:43:29;100500.91;;;1.91;50.95
60087;BME280;45960;53.630;55.972;2023-03-23T03:44:30;100504.28;;;1.96;50.85
60087;BME280;45960;53.630;55.972;2023-03-23T03:45:31;100499.78;;;2.00;50.59
60087;BME280;45960;53.630;55.972;2023-03-23T03:46:35;100507.56;;;2.05;50.51
60087;BME280;45960;53.630;55.972;2023-03-23T03:47:36;100511.09;;;2.04;50.78
60087;BME280;45960;53.630;55.972;2023-03-23T03:48:37;100514.56;;;2.06;50.82
60087;BME280;45960;53.630;55.972;2023-03-23T03:49:38;100518.03;;;2.08;50.89
60087;BME280;45960;53.630;55.972;2023-03-23T03:50:39;100512.69;;;2.11;50.93
60087;BME280;45960;53.630;55.972;2023-03-23T03:51:40;100520.34;;;2.20;50.84
60087;BME280;45960;53.630;55.972;2023-03-23T03:52:46;100517.53;;;2.26;50.80
60087;BME280;45960;53.630;55.972;2023-03-23T03:53:47;100512.13;;;2.31;50.75
60087;BME280;45960;53.630;55.972;2023-03-23T03:54:48;100513.75;;;2.36;50.53
60087;BME280;45960;53.630;55.972;2023-03-23T03:55:49;100513.66;;;2.39;50.64
60087;BME280;45960;53.630;55.972;2023-03-23T03:56:51;100512.66;;;2.43;50.79
60087;BME280;45960;53.630;55.972;2023-03-23T03:58:11;100516.09;;;2.47;50.53
60087;BME280;45960;53.630;55.972;2023-03-23T03:59:50;100522.03;;;2.54;50.64
60087;BME280;45960;53.630;55.972;2023-03-23T04:01:15;100523.69;;;2.58;50.66
60087;BME280;45960;53.630;55.972;2023-03-23T04:02:17;100521.75;;;2.63;50.62
60087;BME280;45960;53.630;55.972;2023-03-23T04:03:21;100521.63;;;2.69;50.34
60087;BME280;45960;53.630;55.972;2023-03-23T04:04:36;100525.88;;;2.73;50.60
60087;BME280;45960;53.630;55.972;2023-03-23T04:05:37;100523.16;;;2.76;50.62
60087;BME280;45960;53.630;55.972;2023-03-23T04:06:37;100535.34;;;2.80;50.61
60087;BME280;45960;53.630;55.972;2023-03-23T04:07:40;100526.44;;;2.84;50.60
60087;BME280;45960;53.630;55.972;2023-03-23T04:08:42;100530.69;;;2.88;50.42
60087;BME280;45960;53.630;55.972;2023-03-23T04:09:45;100527.03;;;2.94;50.38
60087;BME280;45960;53.630;55.972;2023-03-23T04:10:49;100529.50;;;2.99;50.39
60087;BME280;45960;53.630;55.972;2023-03-23T04:11:50;100527.63;;;3.02;50.61
60087;BME280;45960;53.630;55.972;2023-03-23T04:13:14;100534.50;;;3.08;50.42
60087;BME280;45960;53.630;55.972;2023-03-23T04:14:34;100534.34;;;3.14;50.46
60087;BME280;45960;53.630;55.972;2023-03-23T04:15:35;100537.69;;;3.19;50.22
60087;BME280;45960;53.630;55.972;2023-03-23T04:16:36;100530.50;;;3.24;50.52
60087;BME280;45960;53.630;55.972;2023-03-23T04:17:37;100533.00;;;3.29;50.50
60087;BME280;45960;53.630;55.972;2023-03-23T04:18:38;100539.03;;;3.32;50.52
60087;BME280;45960;53.630;55.972;2023-03-23T04:19:39;100542.41;;;3.38;50.33
60087;BME280;45960;53.630;55.972;2023-03-23T04:20:41;100538.75;;;3.42;50.39
60087;BME280;45960;53.630;55.972;2023-03-23T04:21:42;100536.81;;;3.47;50.52
60087;BME280;45960;53.630;55.972;2023-03-23T04:22:43;100533.19;;;3.51;50.58
60087;BME280;45960;53.630;55.972;2023-03-23T04:23:45;100544.47;;;3.56;50.58
60087;BME280;45960;53.630;55.972;2023-03-23T04:24:46;100538.16;;;3.60;50.69
60087;BME280;45960;53.630;55.972;2023-03-23T04:25:52;100541.63;;;3.62;50.63
60087;BME280;45960;53.630;55.972;2023-03-23T04:26:59;100541.44;;;3.68;51.09
60087;BME280;45960;53.630;55.972;2023-03-23T04:28:02;100545.66;;;3.74;50.70
60087;BME280;45960;53.630;55.972;2023-03-23T04:29:08;100544.59;;;3.79;50.72
60087;BME280;45960;53.630;55.972;2023-03-23T04:30:10;100549.72;;;3.84;50.84
60087;BME280;45960;53.630;55.972;2023-03-23T04:31:19;100563.59;;;3.91;50.52
60087;BME280;45960;53.630;55.972;2023-03-23T04:32:25;100552.81;;;3.97;50.53
60087;BME280;45960;53.630;55.972;2023-03-23T04:33:29;100560.53;;;4.03;50.66
60087;BME280;45960;53.630;55.972;2023-03-23T04:34:31;100554.22;;;4.07;50.65
60087;BME280;45960;53.630;55.972;2023-03-23T04:35:33;100557.59;;;4.12;50.54
60087;BME280;45960;53.630;55.972;2023-03-23T04:36:54;100561.84;;;4.16;50.57
60087;BME280;45960;53.630;55.972;2023-03-23T04:38:00;100563.41;;;4.22;50.74
60087;BME280;45960;53.630;55.972;2023-03-23T04:39:01;100560.63;;;4.26;50.68
60087;BME280;45960;53.630;55.972;2023-03-23T04:40:09;100560.41;;;4.33;50.49
60087;BME280;45960;53.630;55.972;2023-03-23T04:41:14;100564.63;;;4.38;50.49
60087;BME280;45960;53.630;55.972;2023-03-23T04:42:41;100561.72;;;4.46;50.47
60087;BME280;45960;53.630;55.972;2023-03-23T04:43:49;100561.47;;;4.52;50.55
60087;BME280;45960;53.630;55.972;2023-03-23T04:45:03;100562.97;;;4.59;50.35
60087;BME280;45960;53.630;55.972;2023-03-23T04:46:10;100560.16;;;4.64;50.69
60087;BME280;45960;53.630;55.972;2023-03-23T04:47:12;100567.94;;;4.68;50.42
60087;BME280;45960;53.630;55.972;2023-03-23T04:48:20;100571.31;;;4.74;50.51
60087;BME280;45960;53.630;55.972;2023-03-23T04:49:32;100572.91;;;4.78;50.33
60087;BME280;45960;53.630;55.972;2023-03-23T04:50:45;100564.81;;;4.82;50.57
60087;BME280;45960;53.630;55.972;2023-03-23T04:51:56;100563.81;;;4.85;50.60
60087;BME280;45960;53.630;55.972;2023-03-23T04:53:20;100577.84;;;4.87;50.77
60087;BME280;45960;53.630;55.972;2023-03-23T04:54:22;100576.84;;;4.91;50.79
60087;BME280;45960;53.630;55.972;2023-03-23T04:55:27;100575.66;;;4.98;50.89
60087;BME280;45960;53.630;55.972;2023-03-23T04:56:31;100581.66;;;5.03;50.66
60087;BME280;45960;53.630;55.972;2023-03-23T04:57:39;100575.34;;;5.07;50.72
60087;BME280;45960;53.630;55.972;2023-03-23T04:59:06;100580.41;;;5.13;50.67
60087;BME280;45960;53.630;55.972;2023-03-23T05:00:12;100576.69;;;5.18;50.60
60087;BME280;45960;53.630;55.972;2023-03-23T05:01:19;100581.78;;;5.24;50.57
60087;BME280;45960;53.630;55.972;2023-03-23T05:02:38;100578.91;;;5.30;50.53
60087;BME280;45960;53.630;55.972;2023-03-23T05:03:42;100581.31;;;5.36;50.45
60087;BME280;45960;53.630;55.972;2023-03-23T05:04:44;100583.78;;;5.41;50.51
60087;BME280;45960;53.630;55.972;2023-03-23T05:05:49;100582.69;;;5.46;50.64
60087;BME280;45960;53.630;55.972;2023-03-23T05:06:54;100583.34;;;5.51;50.18
60087;BME280;45960;53.630;55.972;2023-03-23T05:07:59;100588.47;;;5.56;50.57
60087;BME280;45960;53.630;55.972;2023-03-23T05:09:03;100586.50;;;5.61;50.33
60087;BME280;45960;53.630;55.972;2023-03-23T05:10:06;100592.41;;;5.68;50.29
60087;BME280;45960;53.630;55.972;2023-03-23T05:11:08;100587.78;;;5.73;50.46
60087;BME280;45960;53.630;55.972;2023-03-23T05:12:12;100590.19;;;5.79;50.37
60087;BME280;45960;53.630;55.972;2023-03-23T05:13:28;100584.75;;;5.82;50.43
60087;BME280;45960;53.630;55.972;2023-03-23T05:14:32;100584.63;;;5.85;50.59
60087;BME280;45960;53.630;55.972;2023-03-23T05:15:39;100587.97;;;5.90;50.33
60087;BME280;45960;53.630;55.972;2023-03-23T05:16:42;100589.63;;;5.94;50.49
60087;BME280;45960;53.630;55.972;2023-03-23T05:17:48;100592.88;;;6.01;50.58
60087;BME280;45960;53.630;55.972;2023-03-23T05:18:54;100592.69;;;6.05;50.36
60087;BME280;45960;53.630;55.972;2023-03-23T05:19:58;100599.44;;;6.13;50.44
60087;BME280;45960;53.630;55.972;2023-03-23T05:21:15;100593.78;;;6.22;50.35
60087;BME280;45960;53.630;55.972;2023-03-23T05:22:21;100584.59;;;6.29;50.38
60087;BME280;45960;53.630;55.972;2023-03-23T05:23:24;100585.34;;;6.33;50.64
60087;BME280;45960;53.630;55.972;2023-03-23T05:24:31;100586.22;;;6.33;50.83
60087;BME280;45960;53.630;55.972;2023-03-23T05:25:36;100593.09;;;6.37;50.67
60087;BME280;45960;53.630;55.972;2023-03-23T05:26:49;100591.13;;;6.42;50.67
60087;BME280;45960;53.630;55.972;2023-03-23T05:27:57;100600.53;;;6.49;50.63
60087;BME280;45960;53.630;55.972;2023-03-23T05:29:16;100597.63;;;6.56;50.66
60087;BME280;45960;53.630;55.972;2023-03-23T05:30:27;100596.38;;;6.64;50.76
60087;BME280;45960;53.630;55.972;2023-03-23T05:31:30;100597.88;;;6.70;50.49
60087;BME280;45960;53.630;55.972;2023-03-23T05:32:30;100601.13;;;6.77;50.47
60087;BME280;45960;53.630;55.972;2023-03-23T05:33:39;100601.69;;;6.83;50.48
60087;BME280;45960;53.630;55.972;2023-03-23T05:34:50;100606.91;;;6.86;50.53
60087;BME280;45960;53.630;55.972;2023-03-23T05:35:51;100599.56;;;6.91;50.35
60087;BME280;45960;53.630;55.972;2023-03-23T05:36:59;100606.34;;;6.99;50.38
60087;BME280;45960;53.630;55.972;2023-03-23T05:38:10;100603.25;;;7.08;50.42
60087;BME280;45960;53.630;55.972;2023-03-23T05:39:11;100611.75;;;7.16;50.32
60087;BME280;45960;53.630;55.972;2023-03-23T05:40:41;100598.91;;;7.26;50.16
60087;BME280;45960;53.630;55.972;2023-03-23T05:41:48;100607.25;;;7.37;50.11
60087;BME280;45960;53.630;55.972;2023-03-23T05:42:48;100607.81;;;7.44;50.26
60087;BME280;45960;53.630;55.972;2023-03-23T05:43:55;100605.72;;;7.50;50.00
60087;BME280;45960;53.630;55.972;2023-03-23T05:45:15;100600.97;;;7.57;50.12
60087;BME280;45960;53.630;55.972;2023-03-23T05:46:18;100598.47;;;7.54;50.18
60087;BME280;45960;53.630;55.972;2023-03-23T05:47:20;100603.66;;;7.57;50.19
60087;BME280;45960;53.630;55.972;2023-03-23T05:48:26;100602.56;;;7.61;50.36
60087;BME280;45960;53.630;55.972;2023-03-23T05:49:27;100611.13;;;7.68;50.19
60087;BME280;45960;53.630;55.972;2023-03-23T05:50:29;100607.34;;;7.72;50.22
60087;BME280;45960;53.630;55.972;2023-03-23T05:51:30;100608.84;;;7.77;50.00
60087;BME280;45960;53.630;55.972;2023-03-23T05:52:31;100613.22;;;7.78;50.05
60087;BME280;45960;53.630;55.972;2023-03-23T05:53:34;100608.94;;;7.76;50.17
60087;BME280;45960;53.630;55.972;2023-03-23T05:54:36;100611.53;;;7.77;50.24
60087;BME280;45960;53.630;55.972;2023-03-23T05:55:37;100607.78;;;7.81;50.35
60087;BME280;45960;53.630;55.972;2023-03-23T05:57:07;100609.19;;;7.89;50.35
60087;BME280;45960;53.630;55.972;2023-03-23T05:58:18;100615.06;;;7.95;50.17
60087;BME280;45960;53.630;55.972;2023-03-23T05:59:20;100617.22;;;8.06;50.16
60087;BME280;45960;53.630;55.972;2023-03-23T06:00:25;100611.44;;;8.15;49.79
60087;BME280;45960;53.630;55.972;2023-03-23T06:01:38;100613.50;;;8.27;49.83